createdAt,value
2017-11-27T00:00:59.447Z,58.35
2017-11-27T00:02:00.046Z,58.35
2017-11-27T00:03:00.644Z,58.26
2017-11-27T00:04:01.244Z,58.26
2017-11-27T00:05:01.852Z,58.54
2017-11-27T00:06:02.486Z,58.45
2017-11-27T00:07:03.114Z,58.82
2017-11-27T00:08:03.711Z,58.82
2017-11-27T00:09:04.345Z,58.82
2017-11-27T00:10:04.949Z,58.92
2017-11-27T00:11:05.554Z,58.82
2017-11-27T00:12:06.184Z,58.73
2017-11-27T00:13:06.780Z,59.01
2017-11-27T00:14:07.387Z,59.11
2017-11-27T00:15:07.984Z,59.30
2017-11-27T00:16:08.584Z,58.92
2017-11-27T00:17:09.180Z,58.82
2017-11-27T00:18:09.782Z,58.73
2017-11-27T00:19:10.382Z,58.92
2017-11-27T00:20:10.987Z,58.92
2017-11-27T00:21:11.584Z,58.73
2017-11-27T00:22:12.185Z,58.92
2017-11-27T00:23:12.785Z,58.82
2017-11-27T00:24:13.389Z,59.20
2017-11-27T00:25:13.986Z,58.92
2017-11-27T00:26:14.588Z,58.92
2017-11-27T00:27:15.188Z,58.92
2017-11-27T00:28:15.789Z,58.92
2017-11-27T00:29:16.388Z,58.73
2017-11-27T00:30:16.988Z,58.63
2017-11-27T00:31:17.595Z,58.73
2017-11-27T00:32:18.191Z,58.54
2017-11-27T00:33:18.790Z,58.54
2017-11-27T00:34:19.390Z,58.45
2017-11-27T00:35:19.992Z,58.92
2017-11-27T00:36:20.595Z,58.26
2017-11-27T00:37:21.229Z,58.35
2017-11-27T00:38:21.833Z,58.26
2017-11-27T00:39:22.433Z,58.16
2017-11-27T00:40:23.031Z,58.16
2017-11-27T00:41:23.637Z,58.16
2017-11-27T00:42:24.233Z,58.07
2017-11-27T00:43:24.840Z,58.63
2017-11-27T00:44:25.443Z,58.16
2017-11-27T00:45:26.040Z,57.97
2017-11-27T00:46:26.650Z,57.97
2017-11-27T00:47:27.247Z,58.16
2017-11-27T00:48:27.844Z,58.16
2017-11-27T00:49:28.477Z,58.16
2017-11-27T00:50:29.077Z,58.16
2017-11-27T00:51:29.705Z,58.07
2017-11-27T00:52:30.308Z,58.07
2017-11-27T00:53:30.906Z,58.26
2017-11-27T00:54:31.506Z,57.97
2017-11-27T00:55:32.105Z,57.97
2017-11-27T00:56:32.709Z,57.97
2017-11-27T00:57:33.308Z,57.88
2017-11-27T00:58:33.909Z,57.97
2017-11-27T00:59:34.514Z,58.07
2017-11-27T01:00:35.110Z,57.97
2017-11-27T01:01:35.710Z,57.97
2017-11-27T01:02:36.310Z,57.97
2017-11-27T01:03:36.910Z,57.78
2017-11-27T01:04:37.541Z,58.07
2017-11-27T01:05:38.180Z,57.95
2017-11-27T01:06:38.774Z,57.95
2017-11-27T01:07:39.376Z,58.23
2017-11-27T01:08:39.977Z,58.32
2017-11-27T01:09:40.574Z,58.63
2017-11-27T01:10:41.173Z,58.70
2017-11-27T01:11:41.773Z,58.51
2017-11-27T01:12:42.379Z,58.61
2017-11-27T01:13:42.982Z,58.61
2017-11-27T01:14:43.580Z,58.45
2017-11-27T01:15:44.209Z,58.82
2017-11-27T01:16:44.809Z,58.54
2017-11-27T01:17:45.408Z,57.78
2017-11-27T01:18:46.008Z,58.16
2017-11-27T01:19:46.643Z,57.78
2017-11-27T01:20:47.271Z,57.76
2017-11-27T01:21:47.875Z,58.26
2017-11-27T01:22:48.481Z,57.69
2017-11-27T01:23:49.076Z,57.60
2017-11-27T01:24:49.675Z,57.60
2017-11-27T01:25:50.275Z,57.60
2017-11-27T01:26:50.874Z,57.66
2017-11-27T01:27:51.473Z,57.69
2017-11-27T01:28:52.076Z,57.69
2017-11-27T01:29:52.675Z,57.60
2017-11-27T01:30:53.274Z,57.69
2017-11-27T01:31:53.908Z,57.50
2017-11-27T01:32:54.507Z,57.41
2017-11-27T01:33:55.104Z,57.50
2017-11-27T01:34:55.705Z,57.60
2017-11-27T01:35:56.307Z,57.60
2017-11-27T01:36:56.906Z,57.31
2017-11-27T01:37:57.541Z,57.12
2017-11-27T01:38:58.137Z,57.29
2017-11-27T01:39:58.771Z,57.60
2017-11-27T01:40:59.368Z,57.66
2017-11-27T01:41:59.968Z,57.69
2017-11-27T01:43:00.567Z,57.41
2017-11-27T01:44:01.165Z,57.47
2017-11-27T01:45:01.765Z,57.66
2017-11-27T01:46:02.370Z,57.47
2017-11-27T01:47:02.969Z,57.60
2017-11-27T01:48:03.567Z,57.66
2017-11-27T01:49:04.168Z,57.38
2017-11-27T01:50:04.773Z,57.47
2017-11-27T01:51:05.369Z,57.47
2017-11-27T01:52:05.969Z,57.38
2017-11-27T01:53:06.577Z,57.47
2017-11-27T01:54:07.170Z,57.57
2017-11-27T01:55:07.777Z,57.47
2017-11-27T01:56:08.382Z,57.29
2017-11-27T01:57:08.980Z,57.38
2017-11-27T01:58:09.584Z,57.60
2017-11-27T01:59:10.179Z,57.57
2017-11-27T02:00:10.784Z,57.57
2017-11-27T02:01:11.390Z,57.38
2017-11-27T02:02:12.023Z,57.47
2017-11-27T02:03:12.628Z,57.47
2017-11-27T02:04:13.228Z,58.23
2017-11-27T02:05:13.856Z,57.38
2017-11-27T02:06:14.497Z,57.66
2017-11-27T02:07:15.085Z,57.38
2017-11-27T02:08:15.692Z,57.47
2017-11-27T02:09:16.294Z,57.47
2017-11-27T02:10:16.891Z,57.60
2017-11-27T02:11:17.496Z,57.12
2017-11-27T02:12:18.097Z,56.81
2017-11-27T02:13:18.708Z,57.12
2017-11-27T02:14:19.313Z,57.57
2017-11-27T02:15:19.903Z,57.57
2017-11-27T02:16:20.541Z,57.57
2017-11-27T02:17:21.138Z,57.57
2017-11-27T02:18:21.739Z,57.69
2017-11-27T02:19:22.336Z,57.78
2017-11-27T02:20:22.936Z,57.41
2017-11-27T02:21:23.569Z,57.31
2017-11-27T02:22:24.167Z,57.10
2017-11-27T02:23:24.765Z,56.91
2017-11-27T02:24:25.366Z,57.00
2017-11-27T02:25:25.964Z,57.19
2017-11-27T02:26:26.565Z,56.81
2017-11-27T02:27:27.170Z,57.00
2017-11-27T02:28:27.767Z,56.91
2017-11-27T02:29:28.365Z,57.00
2017-11-27T02:30:28.967Z,57.03
2017-11-27T02:31:29.563Z,57.10
2017-11-27T02:32:30.173Z,57.00
2017-11-27T02:33:30.764Z,57.19
2017-11-27T02:34:31.363Z,56.81
2017-11-27T02:35:31.964Z,57.29
2017-11-27T02:36:32.561Z,57.19
2017-11-27T02:37:33.167Z,57.00
2017-11-27T02:38:33.767Z,57.00
2017-11-27T02:39:34.399Z,56.91
2017-11-27T02:40:35.029Z,57.10
2017-11-27T02:41:35.630Z,57.10
2017-11-27T02:42:36.245Z,57.00
2017-11-27T02:43:36.869Z,57.29
2017-11-27T02:44:37.465Z,57.00
2017-11-27T02:45:38.065Z,57.19
2017-11-27T02:46:38.665Z,57.29
2017-11-27T02:47:39.269Z,57.10
2017-11-27T02:48:39.866Z,56.72
2017-11-27T02:49:40.465Z,56.72
2017-11-27T02:50:41.068Z,57.29
2017-11-27T02:51:41.674Z,57.19
2017-11-27T02:52:42.277Z,57.19
2017-11-27T02:53:42.877Z,57.29
2017-11-27T02:54:43.507Z,56.62
2017-11-27T02:55:44.138Z,56.44
2017-11-27T02:56:44.735Z,56.62
2017-11-27T02:57:45.335Z,56.72
2017-11-27T02:58:45.935Z,56.81
2017-11-27T02:59:46.533Z,56.34
2017-11-27T03:00:47.137Z,56.72
2017-11-27T03:01:47.736Z,56.72
2017-11-27T03:02:48.364Z,56.44
2017-11-27T03:03:48.964Z,56.72
2017-11-27T03:04:49.598Z,56.34
2017-11-27T03:05:50.233Z,56.72
2017-11-27T03:06:50.825Z,56.72
2017-11-27T03:07:51.425Z,56.72
2017-11-27T03:08:52.029Z,57.10
2017-11-27T03:09:52.626Z,56.62
2017-11-27T03:10:53.232Z,56.91
2017-11-27T03:11:53.827Z,56.72
2017-11-27T03:12:54.428Z,56.62
2017-11-27T03:13:55.060Z,56.62
2017-11-27T03:14:55.662Z,56.72
2017-11-27T03:15:56.272Z,56.72
2017-11-27T03:16:56.858Z,57.00
2017-11-27T03:17:57.457Z,56.81
2017-11-27T03:18:58.063Z,56.72
2017-11-27T03:19:58.661Z,56.91
2017-11-27T03:20:59.259Z,56.72
2017-11-27T03:21:59.860Z,56.72
2017-11-27T03:23:00.460Z,56.72
2017-11-27T03:24:01.065Z,56.44
2017-11-27T03:25:01.701Z,57.00
2017-11-27T03:26:02.304Z,56.91
2017-11-27T03:27:02.906Z,56.62
2017-11-27T03:28:03.503Z,56.44
2017-11-27T03:29:04.102Z,56.44
2017-11-27T03:30:04.703Z,56.34
2017-11-27T03:31:05.302Z,55.96
2017-11-27T03:32:05.945Z,56.62
2017-11-27T03:33:06.510Z,56.62
2017-11-27T03:34:07.103Z,56.62
2017-11-27T03:35:07.701Z,56.72
2017-11-27T03:36:08.301Z,56.62
2017-11-27T03:37:08.934Z,56.91
2017-11-27T03:38:09.531Z,56.44
2017-11-27T03:39:10.133Z,56.72
2017-11-27T03:40:10.731Z,56.62
2017-11-27T03:41:11.330Z,56.72
2017-11-27T03:42:11.935Z,57.00
2017-11-27T03:43:12.529Z,56.91
2017-11-27T03:44:13.132Z,56.91
2017-11-27T03:45:13.731Z,56.44
2017-11-27T03:46:14.330Z,56.34
2017-11-27T03:47:14.935Z,56.53
2017-11-27T03:48:15.531Z,56.34
2017-11-27T03:49:16.131Z,56.34
2017-11-27T03:50:16.735Z,56.72
2017-11-27T03:51:17.335Z,56.06
2017-11-27T03:52:17.928Z,56.34
2017-11-27T03:53:18.527Z,56.44
2017-11-27T03:54:19.155Z,56.34
2017-11-27T03:55:19.818Z,56.34
2017-11-27T03:56:20.388Z,56.44
2017-11-27T03:57:20.984Z,56.44
2017-11-27T03:58:21.592Z,56.34
2017-11-27T03:59:22.183Z,56.06
2017-11-27T04:00:22.783Z,56.34
2017-11-27T04:01:23.384Z,56.15
2017-11-27T04:02:23.991Z,56.44
2017-11-27T04:03:24.617Z,56.53
2017-11-27T04:04:25.224Z,56.91
2017-11-27T04:05:25.823Z,56.72
2017-11-27T04:06:26.419Z,56.62
2017-11-27T04:07:27.020Z,56.62
2017-11-27T04:08:27.618Z,56.34
2017-11-27T04:09:28.217Z,56.72
2017-11-27T04:10:28.819Z,56.53
2017-11-27T04:11:29.419Z,56.25
2017-11-27T04:12:30.050Z,56.34
2017-11-27T04:13:30.651Z,56.34
2017-11-27T04:14:31.256Z,56.53
2017-11-27T04:15:31.851Z,56.34
2017-11-27T04:16:32.453Z,56.34
2017-11-27T04:17:33.055Z,56.72
2017-11-27T04:18:33.649Z,56.62
2017-11-27T04:19:34.254Z,56.62
2017-11-27T04:20:34.848Z,56.62
2017-11-27T04:21:35.448Z,56.53
2017-11-27T04:22:36.049Z,56.15
2017-11-27T04:23:36.654Z,55.87
2017-11-27T04:24:37.260Z,55.96
2017-11-27T04:25:37.852Z,55.87
2017-11-27T04:26:38.450Z,56.06
2017-11-27T04:27:39.051Z,55.78
2017-11-27T04:28:39.687Z,55.68
2017-11-27T04:29:40.282Z,55.78
2017-11-27T04:30:40.883Z,55.87
2017-11-27T04:31:41.482Z,55.96
2017-11-27T04:32:42.088Z,56.25
2017-11-27T04:33:42.709Z,56.06
2017-11-27T04:34:43.289Z,55.96
2017-11-27T04:35:43.886Z,55.87
2017-11-27T04:36:44.486Z,55.96
2017-11-27T04:37:45.115Z,55.96
2017-11-27T04:38:45.709Z,55.87
2017-11-27T04:39:46.341Z,56.06
2017-11-27T04:40:46.938Z,55.87
2017-11-27T04:41:47.536Z,56.15
2017-11-27T04:42:48.136Z,55.87
2017-11-27T04:43:48.742Z,55.87
2017-11-27T04:44:49.376Z,55.78
2017-11-27T04:45:49.971Z,55.96
2017-11-27T04:46:50.569Z,55.87
2017-11-27T04:47:51.169Z,55.87
2017-11-27T04:48:51.774Z,55.87
2017-11-27T04:49:52.371Z,55.87
2017-11-27T04:50:52.971Z,55.78
2017-11-27T04:51:53.574Z,55.96
2017-11-27T04:52:54.185Z,55.78
2017-11-27T04:53:54.771Z,56.15
2017-11-27T04:54:55.371Z,55.87
2017-11-27T04:55:55.979Z,55.78
2017-11-27T04:56:56.582Z,55.96
2017-11-27T04:57:57.184Z,55.78
2017-11-27T04:58:57.784Z,55.68
2017-11-27T04:59:58.390Z,55.96
2017-11-27T05:00:58.989Z,56.06
2017-11-27T05:01:59.588Z,56.06
2017-11-27T05:03:00.185Z,56.15
2017-11-27T05:04:00.785Z,56.06
2017-11-27T05:05:01.389Z,55.87
2017-11-27T05:06:02.025Z,55.87
2017-11-27T05:07:02.655Z,56.15
2017-11-27T05:08:03.257Z,55.96
2017-11-27T05:09:03.862Z,56.15
2017-11-27T05:10:04.457Z,55.96
2017-11-27T05:11:05.061Z,55.96
2017-11-27T05:12:05.658Z,55.96
2017-11-27T05:13:06.255Z,56.06
2017-11-27T05:14:06.857Z,55.68
2017-11-27T05:15:07.455Z,55.78
2017-11-27T05:16:08.056Z,55.87
2017-11-27T05:17:08.682Z,55.87
2017-11-27T05:18:09.312Z,56.06
2017-11-27T05:19:09.922Z,55.96
2017-11-27T05:20:10.512Z,55.96
2017-11-27T05:21:11.139Z,55.87
2017-11-27T05:22:11.738Z,56.15
2017-11-27T05:23:12.341Z,56.06
2017-11-27T05:24:12.936Z,56.15
2017-11-27T05:25:13.534Z,55.96
2017-11-27T05:26:14.135Z,56.15
2017-11-27T05:27:14.736Z,55.96
2017-11-27T05:28:15.336Z,56.15
2017-11-27T05:29:15.968Z,56.15
2017-11-27T05:30:16.573Z,55.96
2017-11-27T05:31:17.170Z,55.87
2017-11-27T05:32:17.770Z,55.87
2017-11-27T05:33:18.375Z,55.87
2017-11-27T05:34:18.975Z,56.06
2017-11-27T05:35:19.576Z,55.87
2017-11-27T05:36:20.171Z,55.96
2017-11-27T05:37:20.772Z,56.06
2017-11-27T05:38:21.374Z,55.87
2017-11-27T05:39:21.971Z,55.96
2017-11-27T05:40:22.606Z,56.06
2017-11-27T05:41:23.202Z,56.15
2017-11-27T05:42:23.833Z,56.15
2017-11-27T05:43:24.433Z,56.06
2017-11-27T05:44:25.030Z,55.96
2017-11-27T05:45:25.631Z,55.87
2017-11-27T05:46:26.265Z,55.87
2017-11-27T05:47:26.868Z,56.06
2017-11-27T05:48:27.466Z,56.15
2017-11-27T05:49:28.063Z,56.15
2017-11-27T05:50:28.663Z,56.15
2017-11-27T05:51:29.276Z,55.96
2017-11-27T05:52:29.890Z,55.87
2017-11-27T05:53:30.494Z,55.68
2017-11-27T05:54:31.089Z,55.87
2017-11-27T05:55:31.687Z,55.87
2017-11-27T05:56:32.293Z,56.18
2017-11-27T05:57:32.919Z,55.59
2017-11-27T05:58:33.523Z,55.30
2017-11-27T05:59:34.134Z,55.59
2017-11-27T06:00:34.723Z,55.59
2017-11-27T06:01:35.317Z,55.59
2017-11-27T06:02:35.967Z,55.59
2017-11-27T06:03:36.565Z,55.87
2017-11-27T06:04:37.162Z,55.59
2017-11-27T06:05:37.768Z,55.59
2017-11-27T06:06:38.362Z,55.68
2017-11-27T06:07:38.993Z,55.59
2017-11-27T06:08:39.593Z,55.68
2017-11-27T06:09:40.189Z,55.80
2017-11-27T06:10:40.824Z,55.59
2017-11-27T06:11:41.424Z,55.30
2017-11-27T06:12:42.030Z,55.59
2017-11-27T06:13:42.628Z,55.30
2017-11-27T06:14:43.234Z,55.02
2017-11-27T06:15:43.831Z,55.21
2017-11-27T06:16:44.434Z,54.96
2017-11-27T06:17:45.029Z,55.02
2017-11-27T06:18:45.639Z,55.02
2017-11-27T06:19:46.237Z,55.21
2017-11-27T06:20:46.838Z,55.21
2017-11-27T06:21:47.436Z,55.21
2017-11-27T06:22:48.066Z,55.24
2017-11-27T06:23:48.671Z,54.74
2017-11-27T06:24:49.264Z,54.64
2017-11-27T06:25:49.863Z,54.77
2017-11-27T06:26:50.463Z,54.93
2017-11-27T06:27:51.111Z,54.74
2017-11-27T06:28:51.716Z,54.64
2017-11-27T06:29:52.313Z,54.64
2017-11-27T06:30:52.915Z,54.86
2017-11-27T06:31:53.526Z,54.83
2017-11-27T06:32:54.122Z,54.93
2017-11-27T06:33:54.727Z,54.77
2017-11-27T06:34:55.324Z,54.74
2017-11-27T06:35:55.922Z,54.83
2017-11-27T06:36:56.528Z,54.83
2017-11-27T06:37:57.131Z,54.93
2017-11-27T06:38:57.762Z,54.64
2017-11-27T06:39:58.363Z,54.49
2017-11-27T06:40:58.962Z,54.58
2017-11-27T06:41:59.565Z,54.36
2017-11-27T06:43:00.167Z,54.55
2017-11-27T06:44:00.765Z,54.64
2017-11-27T06:45:01.366Z,54.55
2017-11-27T06:46:01.994Z,54.27
2017-11-27T06:47:02.595Z,54.46
2017-11-27T06:48:03.196Z,54.58
2017-11-27T06:49:03.802Z,54.39
2017-11-27T06:50:04.401Z,54.68
2017-11-27T06:51:05.001Z,54.68
2017-11-27T06:52:05.632Z,54.58
2017-11-27T06:53:06.265Z,54.68
2017-11-27T06:54:06.865Z,54.30
2017-11-27T06:55:07.513Z,53.92
2017-11-27T06:56:08.101Z,54.08
2017-11-27T06:57:08.701Z,53.92
2017-11-27T06:58:09.302Z,54.08
2017-11-27T06:59:09.903Z,54.36
2017-11-27T07:00:10.503Z,54.27
2017-11-27T07:01:11.109Z,54.27
2017-11-27T07:02:11.714Z,54.55
2017-11-27T07:03:12.321Z,54.36
2017-11-27T07:04:12.913Z,54.46
2017-11-27T07:05:13.515Z,54.36
2017-11-27T07:06:14.116Z,54.46
2017-11-27T07:07:14.719Z,54.27
2017-11-27T07:08:15.319Z,54.46
2017-11-27T07:09:15.921Z,55.11
2017-11-27T07:10:16.522Z,54.77
2017-11-27T07:11:17.127Z,54.77
2017-11-27T07:12:17.757Z,54.86
2017-11-27T07:13:18.358Z,54.77
2017-11-27T07:14:18.959Z,54.68
2017-11-27T07:15:19.560Z,54.39
2017-11-27T07:16:20.189Z,54.49
2017-11-27T07:17:20.790Z,54.46
2017-11-27T07:18:21.392Z,54.36
2017-11-27T07:19:21.991Z,54.83
2017-11-27T07:20:22.599Z,54.86
2017-11-27T07:21:23.195Z,54.68
2017-11-27T07:22:23.795Z,54.68
2017-11-27T07:23:24.395Z,54.68
2017-11-27T07:24:25.001Z,54.96
2017-11-27T07:25:25.599Z,54.86
2017-11-27T07:26:26.198Z,54.68
2017-11-27T07:27:26.813Z,54.49
2017-11-27T07:28:27.409Z,54.58
2017-11-27T07:29:28.007Z,54.58
2017-11-27T07:30:28.619Z,54.58
2017-11-27T07:31:29.216Z,54.49
2017-11-27T07:32:29.821Z,54.39
2017-11-27T07:33:30.417Z,53.92
2017-11-27T07:34:31.019Z,53.92
2017-11-27T07:35:31.618Z,54.02
2017-11-27T07:36:32.219Z,53.92
2017-11-27T07:37:32.819Z,53.92
2017-11-27T07:38:33.420Z,53.92
2017-11-27T07:39:34.020Z,54.39
2017-11-27T07:40:34.625Z,54.39
2017-11-27T07:41:35.226Z,54.11
2017-11-27T07:42:35.835Z,54.02
2017-11-27T07:43:36.440Z,53.92
2017-11-27T07:44:37.061Z,54.02
2017-11-27T07:45:37.662Z,53.92
2017-11-27T07:46:38.264Z,54.02
2017-11-27T07:47:38.877Z,53.83
2017-11-27T07:48:39.486Z,53.92
2017-11-27T07:49:40.085Z,54.02
2017-11-27T07:50:40.685Z,54.21
2017-11-27T07:51:41.289Z,54.11
2017-11-27T07:52:41.894Z,53.64
2017-11-27T07:53:42.499Z,53.92
2017-11-27T07:54:43.129Z,54.21
2017-11-27T07:55:43.762Z,54.11
2017-11-27T07:56:44.376Z,53.83
2017-11-27T07:57:44.971Z,54.11
2017-11-27T07:58:45.570Z,53.73
2017-11-27T07:59:46.173Z,53.73
2017-11-27T08:00:46.780Z,54.30
2017-11-27T08:01:47.384Z,54.11
2017-11-27T08:02:48.016Z,54.11
2017-11-27T08:03:48.711Z,54.11
2017-11-27T08:04:49.341Z,53.64
2017-11-27T08:05:49.947Z,53.73
2017-11-27T08:06:50.555Z,53.83
2017-11-27T08:07:51.157Z,53.92
2017-11-27T08:08:51.794Z,53.92
2017-11-27T08:09:52.393Z,53.92
2017-11-27T08:10:52.995Z,54.02
2017-11-27T08:11:53.595Z,53.92
2017-11-27T08:12:54.233Z,54.11
2017-11-27T08:13:54.832Z,53.92
2017-11-27T08:14:55.438Z,54.21
2017-11-27T08:15:56.071Z,53.92
2017-11-27T08:16:56.676Z,53.83
2017-11-27T08:17:57.279Z,53.92
2017-11-27T08:18:57.884Z,54.11
2017-11-27T08:19:58.485Z,53.92
2017-11-27T08:20:59.093Z,54.02
2017-11-27T08:21:59.695Z,53.26
2017-11-27T08:23:00.298Z,53.17
2017-11-27T08:24:00.901Z,53.26
2017-11-27T08:25:01.532Z,54.39
2017-11-27T08:26:02.136Z,53.83
2017-11-27T08:27:02.739Z,54.49
2017-11-27T08:28:03.342Z,54.68
2017-11-27T08:29:03.951Z,54.39
2017-11-27T08:30:04.553Z,53.85
2017-11-27T08:31:05.190Z,53.92
2017-11-27T08:32:05.792Z,53.38
2017-11-27T08:33:06.397Z,53.38
2017-11-27T08:34:07.001Z,53.38
2017-11-27T08:35:07.608Z,53.66
2017-11-27T08:36:08.238Z,53.38
2017-11-27T08:37:08.847Z,53.00
2017-11-27T08:38:09.450Z,53.47
2017-11-27T08:39:10.054Z,52.72
2017-11-27T08:40:10.658Z,51.87
2017-11-27T08:41:11.269Z,51.59
2017-11-27T08:42:11.913Z,52.15
2017-11-27T08:43:12.512Z,51.97
2017-11-27T08:44:13.151Z,52.06
2017-11-27T08:45:13.753Z,52.06
2017-11-27T08:46:14.362Z,52.25
2017-11-27T08:47:14.964Z,51.97
2017-11-27T08:48:15.571Z,52.34
2017-11-27T08:49:16.174Z,52.25
2017-11-27T08:50:16.796Z,51.97
2017-11-27T08:51:17.385Z,51.68
2017-11-27T08:52:17.990Z,51.78
2017-11-27T08:53:18.593Z,51.68
2017-11-27T08:54:19.204Z,51.87
2017-11-27T08:55:19.812Z,51.78
2017-11-27T08:56:20.414Z,51.68
2017-11-27T08:57:21.021Z,52.06
2017-11-27T08:58:21.628Z,51.68
2017-11-27T08:59:22.271Z,51.71
2017-11-27T09:00:22.879Z,51.90
2017-11-27T09:01:23.489Z,51.81
2017-11-27T09:02:24.089Z,52.09
2017-11-27T09:03:24.728Z,51.99
2017-11-27T09:04:25.369Z,51.33
2017-11-27T09:05:25.968Z,50.95
2017-11-27T09:06:26.569Z,50.76
2017-11-27T09:07:27.216Z,50.58
2017-11-27T09:08:27.816Z,50.58
2017-11-27T09:09:28.427Z,50.67
2017-11-27T09:10:29.035Z,50.58
2017-11-27T09:11:29.645Z,50.76
2017-11-27T09:12:30.251Z,50.58
2017-11-27T09:13:30.889Z,50.58
2017-11-27T09:14:31.494Z,50.67
2017-11-27T09:15:32.101Z,50.86
2017-11-27T09:16:32.706Z,50.39
2017-11-27T09:17:33.316Z,50.58
2017-11-27T09:18:33.930Z,50.58
2017-11-27T09:19:34.532Z,50.67
2017-11-27T09:20:35.143Z,51.14
2017-11-27T09:21:35.747Z,51.43
2017-11-27T09:22:36.354Z,51.52
2017-11-27T09:23:36.959Z,50.95
2017-11-27T09:24:37.565Z,50.48
2017-11-27T09:25:38.173Z,50.39
2017-11-27T09:26:38.785Z,50.67
2017-11-27T09:27:39.389Z,50.39
2017-11-27T09:28:39.998Z,50.39
2017-11-27T09:29:40.605Z,50.58
2017-11-27T09:30:41.217Z,50.48
2017-11-27T09:31:41.822Z,50.95
2017-11-27T09:32:42.426Z,50.76
2017-11-27T09:33:43.036Z,50.79
2017-11-27T09:34:43.643Z,50.89
2017-11-27T09:35:44.252Z,50.60
2017-11-27T09:36:44.888Z,50.60
2017-11-27T09:37:45.499Z,50.23
2017-11-27T09:38:46.114Z,50.04
2017-11-27T09:39:46.715Z,49.94
2017-11-27T09:40:47.326Z,49.94
2017-11-27T09:41:47.939Z,49.76
2017-11-27T09:42:48.544Z,50.04
2017-11-27T09:43:49.156Z,50.04
2017-11-27T09:44:49.762Z,50.23
2017-11-27T09:45:50.374Z,49.85
2017-11-27T09:46:51.016Z,50.23
2017-11-27T09:47:51.650Z,49.28
2017-11-27T09:48:52.260Z,48.90
2017-11-27T09:49:52.895Z,49.00
2017-11-27T09:50:53.509Z,48.71
2017-11-27T09:51:54.118Z,48.81
2017-11-27T09:52:54.729Z,49.09
2017-11-27T09:53:55.333Z,48.81
2017-11-27T09:54:55.947Z,49.19
2017-11-27T09:55:56.559Z,48.81
2017-11-27T09:56:57.162Z,49.19
2017-11-27T09:57:57.769Z,48.62
2017-11-27T09:58:58.378Z,48.62
2017-11-27T09:59:58.989Z,48.62
2017-11-27T10:00:59.597Z,48.71
2017-11-27T10:02:00.209Z,48.71
2017-11-27T10:03:00.815Z,48.34
2017-11-27T10:04:01.428Z,48.24
2017-11-27T10:05:02.029Z,48.18
2017-11-27T10:06:02.656Z,47.99
2017-11-27T10:07:03.248Z,48.08
2017-11-27T10:08:03.856Z,48.18
2017-11-27T10:09:04.463Z,48.55
2017-11-27T10:10:05.078Z,48.74
2017-11-27T10:11:05.719Z,49.21
2017-11-27T10:12:06.357Z,48.65
2017-11-27T10:13:06.966Z,47.80
2017-11-27T10:14:07.579Z,48.08
2017-11-27T10:15:08.191Z,47.51
2017-11-27T10:16:08.803Z,46.85
2017-11-27T10:17:09.410Z,46.47
2017-11-27T10:18:10.017Z,46.94
2017-11-27T10:19:10.632Z,47.13
2017-11-27T10:20:11.273Z,47.13
2017-11-27T10:21:11.881Z,46.47
2017-11-27T10:22:12.518Z,46.94
2017-11-27T10:23:13.167Z,47.32
2017-11-27T10:24:13.770Z,47.89
2017-11-27T10:25:14.381Z,48.18
2017-11-27T10:26:15.017Z,48.67
2017-11-27T10:27:15.625Z,48.76
2017-11-27T10:28:16.235Z,48.20
2017-11-27T10:29:16.841Z,48.20
2017-11-27T10:30:17.484Z,47.53
2017-11-27T10:31:18.120Z,47.34
2017-11-27T10:32:18.729Z,46.69
2017-11-27T10:33:19.367Z,47.16
2017-11-27T10:34:19.974Z,47.28
2017-11-27T10:35:20.584Z,47.28
2017-11-27T10:36:21.190Z,47.37
2017-11-27T10:37:21.805Z,47.18
2017-11-27T10:38:22.448Z,46.71
2017-11-27T10:39:23.053Z,47.02
2017-11-27T10:40:23.659Z,46.73
2017-11-27T10:41:24.269Z,46.55
2017-11-27T10:42:24.879Z,46.45
2017-11-27T10:43:25.496Z,45.98
2017-11-27T10:44:26.096Z,45.41
2017-11-27T10:45:26.706Z,44.84
2017-11-27T10:46:27.316Z,44.37
2017-11-27T10:47:27.930Z,44.37
2017-11-27T10:48:28.566Z,44.46
2017-11-27T10:49:29.186Z,45.41
2017-11-27T10:50:29.793Z,45.88
2017-11-27T10:51:30.398Z,45.41
2017-11-27T10:52:31.007Z,44.74
2017-11-27T10:53:31.646Z,44.27
2017-11-27T10:54:32.257Z,44.56
2017-11-27T10:55:32.866Z,44.84
2017-11-27T10:56:33.475Z,45.31
2017-11-27T10:57:34.085Z,45.43
2017-11-27T10:58:34.693Z,45.43
2017-11-27T10:59:35.308Z,44.58
2017-11-27T11:00:35.916Z,44.77
2017-11-27T11:01:36.537Z,44.39
2017-11-27T11:02:37.143Z,44.39
2017-11-27T11:03:37.782Z,44.48
2017-11-27T11:04:38.391Z,43.91
2017-11-27T11:05:39.002Z,43.73
2017-11-27T11:06:39.612Z,44.39
2017-11-27T11:07:40.222Z,44.58
2017-11-27T11:08:40.831Z,44.79
2017-11-27T11:09:41.442Z,44.41
2017-11-27T11:10:42.056Z,43.84
2017-11-27T11:11:42.667Z,43.35
2017-11-27T11:12:43.279Z,42.30
2017-11-27T11:13:43.894Z,42.02
2017-11-27T11:14:44.501Z,42.57
2017-11-27T11:15:45.111Z,42.66
2017-11-27T11:16:45.721Z,43.23
2017-11-27T11:17:46.343Z,43.80
2017-11-27T11:18:46.980Z,43.99
2017-11-27T11:19:47.589Z,44.18
2017-11-27T11:20:48.200Z,44.65
2017-11-27T11:21:48.809Z,44.46
2017-11-27T11:22:49.430Z,44.37
2017-11-27T11:23:50.068Z,44.09
2017-11-27T11:24:50.676Z,43.90
2017-11-27T11:25:51.284Z,43.23
2017-11-27T11:26:51.894Z,43.12
2017-11-27T11:27:52.508Z,43.21
2017-11-27T11:28:53.121Z,43.96
2017-11-27T11:29:53.732Z,44.34
2017-11-27T11:30:54.346Z,44.63
2017-11-27T11:31:54.952Z,45.76
2017-11-27T11:32:55.566Z,45.48
2017-11-27T11:33:56.176Z,44.93
2017-11-27T11:34:56.794Z,44.74
2017-11-27T11:35:57.396Z,44.65
2017-11-27T11:36:58.006Z,44.56
2017-11-27T11:37:58.618Z,44.18
2017-11-27T11:38:59.227Z,44.37
2017-11-27T11:39:59.836Z,44.65
2017-11-27T11:41:00.450Z,44.84
2017-11-27T11:42:01.085Z,44.84
2017-11-27T11:43:01.725Z,44.27
2017-11-27T11:44:02.334Z,44.65
2017-11-27T11:45:02.944Z,44.84
2017-11-27T11:46:03.553Z,43.90
2017-11-27T11:47:04.162Z,43.61
2017-11-27T11:48:04.772Z,43.71
2017-11-27T11:49:05.382Z,43.80
2017-11-27T11:50:05.991Z,44.27
2017-11-27T11:51:06.606Z,44.46
2017-11-27T11:52:07.217Z,44.46
2017-11-27T11:53:07.825Z,44.65
2017-11-27T11:54:08.436Z,44.65
2017-11-27T11:55:09.043Z,44.67
2017-11-27T11:56:09.651Z,44.58
2017-11-27T11:57:10.265Z,45.05
2017-11-27T11:58:10.873Z,44.67
2017-11-27T11:59:11.499Z,44.10
2017-11-27T12:00:12.093Z,43.26
2017-11-27T12:01:12.703Z,43.26
2017-11-27T12:02:13.311Z,43.07
2017-11-27T12:03:13.921Z,43.35
2017-11-27T12:04:14.535Z,43.44
2017-11-27T12:05:15.166Z,43.82
2017-11-27T12:06:15.752Z,44.10
2017-11-27T12:07:16.363Z,44.77
2017-11-27T12:08:16.979Z,44.67
2017-11-27T12:09:17.613Z,44.67
2017-11-27T12:10:18.242Z,44.51
2017-11-27T12:11:18.888Z,44.03
2017-11-27T12:12:19.497Z,43.84
2017-11-27T12:13:20.107Z,44.13
2017-11-27T12:14:20.716Z,44.41
2017-11-27T12:15:21.331Z,44.70
2017-11-27T12:16:21.998Z,44.41
2017-11-27T12:17:22.638Z,43.96
2017-11-27T12:18:23.245Z,43.58
2017-11-27T12:19:23.856Z,44.06
2017-11-27T12:20:24.464Z,43.20
2017-11-27T12:21:25.132Z,42.54
2017-11-27T12:22:25.745Z,42.25
2017-11-27T12:23:26.351Z,42.54
2017-11-27T12:24:26.961Z,42.25
2017-11-27T12:25:27.570Z,41.88
2017-11-27T12:26:28.184Z,41.78
2017-11-27T12:27:28.802Z,42.16
2017-11-27T12:28:29.409Z,41.69
2017-11-27T12:29:30.025Z,41.40
2017-11-27T12:30:30.631Z,41.88
2017-11-27T12:31:31.272Z,41.12
2017-11-27T12:32:31.886Z,41.97
2017-11-27T12:33:32.504Z,41.88
2017-11-27T12:34:33.110Z,41.12
2017-11-27T12:35:33.735Z,41.40
2017-11-27T12:36:34.333Z,41.59
2017-11-27T12:37:34.948Z,42.37
2017-11-27T12:38:35.562Z,42.85
2017-11-27T12:39:36.205Z,42.49
2017-11-27T12:40:36.819Z,41.82
2017-11-27T12:41:37.433Z,41.63
2017-11-27T12:42:38.038Z,40.97
2017-11-27T12:43:38.681Z,40.31
2017-11-27T12:44:39.328Z,40.69
2017-11-27T12:45:39.931Z,40.12
2017-11-27T12:46:40.543Z,40.42
2017-11-27T12:47:41.188Z,40.52
2017-11-27T12:48:41.805Z,40.52
2017-11-27T12:49:42.414Z,39.37
2017-11-27T12:50:43.033Z,39.00
2017-11-27T12:51:43.653Z,38.89
2017-11-27T12:52:44.260Z,38.60
2017-11-27T12:53:44.877Z,38.89
2017-11-27T12:54:45.503Z,38.79
2017-11-27T12:55:46.100Z,39.17
2017-11-27T12:56:46.714Z,39.17
2017-11-27T12:57:47.325Z,38.89
2017-11-27T12:58:47.940Z,38.39
2017-11-27T12:59:48.553Z,38.77
2017-11-27T13:00:49.170Z,39.15